Time;durP1;ratioP1;P1;durP2;ratioP2;P2;SDS_P1;SDS_P2;PMS_P1;PMS_P2;Temp;Humidity;BMP_temperature;BMP_pressure;BME280_temperature;BME280_humidity;BME280_pressure;Samples;Min_cycle;Max_cycle;Signal;HPM_P1;HPM_P2
2021/01/11 00:03:20;;;;;;;5.28;1.52;;;;;;;1.95;100.00;94386.25;10530574;28;20274;-78
2021/01/11 00:08:20;;;;;;;3.85;1.73;;;;;;;1.99;100.00;94374.94;10530388;28;20020;-78
2021/01/11 00:13:21;;;;;;;3.43;1.17;;;;;;;2.00;100.00;94360.66;10517078;28;20402;-78
2021/01/11 00:18:21;;;;;;;2.70;1.30;;;;;;;1.97;100.00;94352.38;10530156;28;20286;-78
2021/01/11 00:23:21;;;;;;;2.10;1.00;;;;;;;1.92;100.00;94354.91;10530702;28;20361;-78
2021/01/11 00:28:22;;;;;;;4.43;1.90;;;;;;;1.96;100.00;94353.41;10530411;28;20262;-78
2021/01/11 00:33:22;;;;;;;2.23;1.27;;;;;;;1.99;100.00;94340.50;10530179;28;21226;-78
2021/01/11 00:38:22;;;;;;;4.13;1.87;;;;;;;2.05;100.00;94357.31;10529790;28;20282;-77
2021/01/11 00:43:23;;;;;;;2.17;1.00;;;;;;;2.18;100.00;94322.66;10529910;28;20398;-78
2021/01/11 00:48:23;;;;;;;2.83;0.97;;;;;;;2.22;100.00;94326.44;10530331;28;20024;-78
2021/01/11 00:53:24;;;;;;;3.23;1.60;;;;;;;2.21;100.00;94314.22;10529621;28;20266;-78
2021/01/11 00:58:24;;;;;;;5.10;1.83;;;;;;;2.21;100.00;94303.63;10529091;28;20282;-78
2021/01/11 01:03:24;;;;;;;1.83;1.20;;;;;;;2.25;100.00;94296.03;10530073;28;20061;-78
2021/01/11 01:08:25;;;;;;;4.60;2.27;;;;;;;2.25;100.00;94263.38;10528591;28;20802;-78
2021/01/11 01:13:25;;;;;;;4.93;2.87;;;;;;;2.24;100.00;94289.09;10528755;28;20046;-78
2021/01/11 01:18:25;;;;;;;4.75;2.53;;;;;;;2.22;100.00;94244.25;10528830;28;20048;-78
2021/01/11 01:23:26;;;;;;;3.67;2.10;;;;;;;2.07;100.00;94235.19;10514480;28;20043;-78
2021/01/11 01:28:26;;;;;;;3.95;2.10;;;;;;;1.98;100.00;94263.88;10487377;28;20301;-78
2021/01/11 01:33:27;;;;;;;2.83;1.73;;;;;;;1.96;100.00;94268.59;10509102;28;20372;-78
2021/01/11 01:38:28;;;;;;;4.60;2.30;;;;;;;1.93;100.00;94280.47;10537513;28;20292;-78
2021/01/11 01:43:28;;;;;;;5.88;2.20;;;;;;;2.01;100.00;94321.69;10536215;28;20274;-78
2021/01/11 01:48:29;;;;;;;6.07;2.10;;;;;;;2.18;100.00;94305.94;10536541;28;20028;-78
2021/01/11 01:53:30;;;;;;;3.05;1.83;;;;;;;2.34;100.00;94346.84;10536715;28;20038;-75
2021/01/11 01:58:30;;;;;;;3.03;1.92;;;;;;;2.41;100.00;94382.00;10518418;28;20387;-74
2021/01/11 02:03:31;;;;;;;3.90;1.30;;;;;;;2.41;100.00;94408.53;10536233;28;20050;-74
2021/01/11 02:08:39;;;;;;;4.67;1.43;;;;;;;2.44;100.00;94388.69;10518030;28;20062;-74
2021/01/11 02:14:01;;;;;;;2.17;1.50;;;;;;;2.55;100.00;94415.25;10517994;28;20792;-74
2021/01/11 02:19:16;;;;;;;5.72;1.80;;;;;;;2.52;100.00;94412.22;10535520;28;20048;-74
2021/01/11 02:24:35;;;;;;;1.77;1.52;;;;;;;2.59;100.00;94430.69;10535729;28;20042;-74
2021/01/11 02:30:09;;;;;;;3.38;1.85;;;;;;;2.53;100.00;94435.88;10535171;28;20062;-75
2021/01/11 02:35:13;;;;;;;3.70;2.15;;;;;;;2.54;100.00;94466.69;10534874;28;20020;-75
2021/01/11 02:40:14;;;;;;;7.30;2.67;;;;;;;2.20;100.00;94494.75;10510939;28;20032;-75
2021/01/11 02:45:14;;;;;;;18.13;6.13;;;;;;;2.15;100.00;94543.16;10492035;28;20494;-75
2021/01/11 02:50:21;;;;;;;14.90;6.65;;;;;;;1.99;100.00;94546.41;10492104;28;20028;-75
2021/01/11 02:55:32;;;;;;;20.40;11.20;;;;;;;1.65;100.00;94553.97;10492470;28;20111;-75
2021/01/11 03:00:37;;;;;;;19.40;10.55;;;;;;;1.41;100.00;94508.81;10492290;28;20032;-75
2021/01/11 03:05:39;;;;;;;20.70;10.27;;;;;;;1.30;100.00;94473.28;10491643;28;20087;-75
2021/01/11 03:10:39;;;;;;;18.52;9.32;;;;;;;1.19;100.00;94443.06;10492007;28;20020;-74
2021/01/11 03:15:40;;;;;;;15.30;7.90;;;;;;;1.04;100.00;94424.09;10491849;28;20029;-74
2021/01/11 03:20:40;;;;;;;10.98;6.30;;;;;;;0.96;100.00;94404.06;10489454;28;20971;-74
2021/01/11 03:25:41;;;;;;;13.33;7.37;;;;;;;1.06;100.00;94382.38;10491169;28;20081;-73
2021/01/11 03:30:41;;;;;;;11.25;5.88;;;;;;;1.20;100.00;94377.72;10491243;28;20779;-74
2021/01/11 03:35:41;;;;;;;10.07;5.23;;;;;;;1.08;100.00;94348.53;10490459;28;20039;-74
2021/01/11 03:40:42;;;;;;;8.23;4.30;;;;;;;1.04;100.00;94346.56;10490120;28;20381;-74
2021/01/11 03:45:42;;;;;;;7.33;4.40;;;;;;;1.00;100.00;94347.00;10490324;28;20273;-74
2021/01/11 03:50:43;;;;;;;6.50;4.00;;;;;;;1.03;100.00;94335.16;10490330;28;20267;-74
2021/01/11 03:55:43;;;;;;;4.50;3.30;;;;;;;1.14;100.00;94342.34;10489620;28;20036;-74
2021/01/11 04:00:43;;;;;;;3.70;2.40;;;;;;;1.32;100.00;94338.03;10489468;28;20039;-74
2021/01/11 04:05:45;;;;;;;1.52;1.30;;;;;;;1.46;100.00;94376.53;10489645;28;20077;-75
2021/01/11 04:10:45;;;;;;;3.60;1.40;;;;;;;1.64;100.00;94414.59;10488467;28;20017;-74
2021/01/11 04:15:46;;;;;;;1.50;0.90;;;;;;;1.75;100.00;94429.72;10488970;28;20036;-74
2021/01/11 04:20:46;;;;;;;2.75;0.85;;;;;;;1.94;100.00;94413.75;10488459;28;20048;-74
2021/01/11 04:25:47;;;;;;;0.70;0.70;;;;;;;2.02;100.00;94401.00;10488205;28;20028;-74
2021/01/11 04:30:47;;;;;;;4.45;1.23;;;;;;;2.13;100.00;94370.25;10488402;28;20278;-74
2021/01/11 04:35:48;;;;;;;2.57;1.00;;;;;;;2.02;100.00;94400.19;10488459;28;20043;-74
2021/01/11 04:40:48;;;;;;;1.83;1.40;;;;;;;1.97;100.00;94369.06;10488266;28;20385;-74
2021/01/11 04:45:49;;;;;;;2.05;0.93;;;;;;;1.92;100.00;94188.75;10487902;28;20274;-73
2021/01/11 04:50:49;;;;;;;2.40;1.17;;;;;;;1.83;100.00;94201.56;10488172;28;20060;-72
2021/01/11 04:55:53;;;;;;;1.95;1.15;;;;;;;1.84;100.00;94258.81;10487664;28;20020;-73
2021/01/11 05:01:00;;;;;;;1.60;1.10;;;;;;;1.96;100.00;94239.44;10487640;28;20129;-73
2021/01/11 05:06:00;;;;;;;2.85;1.48;;;;;;;2.00;100.00;94236.09;10487527;28;20026;-73
2021/01/11 05:11:00;;;;;;;2.53;1.13;;;;;;;2.21;100.00;94245.28;10473654;28;20483;-73
2021/01/11 05:16:14;;;;;;;4.07;0.97;;;;;;;2.31;100.00;94255.31;10496276;28;20024;-73
2021/01/11 05:21:38;;;;;;;3.47;1.42;;;;;;;2.38;100.00;94287.81;10506535;28;20298;-73
2021/01/11 05:26:39;;;;;;;0.70;0.50;;;;;;;2.53;100.00;94242.22;10524778;28;20043;-73
2021/01/11 05:32:04;;;;;;;1.73;0.68;;;;;;;2.54;100.00;94225.28;10494977;28;20051;-73
2021/01/11 05:37:04;;;;;;;2.08;0.90;;;;;;;2.62;100.00;94240.00;10495718;28;20407;-73
2021/01/11 05:42:20;;;;;;;3.20;1.50;;;;;;;2.65;100.00;94241.38;10494909;28;20036;-73
2021/01/11 05:47:20;;;;;;;2.80;0.93;;;;;;;2.74;100.00;94237.34;10494853;28;20286;-73
2021/01/11 05:52:21;;;;;;;1.07;0.97;;;;;;;2.83;100.00;94238.56;10498437;28;20491;-73
2021/01/11 05:57:22;;;;;;;1.73;1.10;;;;;;;2.88;100.00;94249.28;10498131;28;20304;-73
2021/01/11 06:02:23;;;;;;;4.55;2.70;;;;;;;3.12;100.00;94265.09;10497943;28;20082;-72
2021/01/11 06:07:24;;;;;;;4.35;2.42;;;;;;;3.18;100.00;94287.22;10520728;28;20475;-72
2021/01/11 06:12:25;;;;;;;5.68;3.38;;;;;;;3.10;100.00;94267.19;10496860;28;20115;-74
2021/01/11 06:17:25;;;;;;;7.53;4.28;;;;;;;3.18;100.00;94298.69;10493466;28;20036;-72
2021/01/11 06:22:44;;;;;;;8.25;3.90;;;;;;;3.32;100.00;94335.56;10491845;28;20095;-74
2021/01/11 06:28:06;;;;;;;7.28;3.60;;;;;;;3.37;100.00;94343.63;10507560;28;20494;-72
2021/01/11 06:33:07;;;;;;;10.20;3.80;;;;;;;3.37;100.00;94340.97;10524646;28;20039;-72
2021/01/11 06:38:28;;;;;;;10.65;5.57;;;;;;;3.30;100.00;94361.56;10492120;28;20024;-74
2021/01/11 06:43:38;;;;;;;12.63;6.20;;;;;;;3.36;100.00;94339.34;10492123;28;20025;-76
2021/01/11 06:48:40;;;;;;;11.73;6.13;;;;;;;3.01;100.00;94338.44;10491768;28;20024;-76
2021/01/11 06:53:40;;;;;;;13.75;5.50;;;;;;;3.17;100.00;94330.78;10513818;28;20123;-75
2021/01/11 06:58:41;;;;;;;14.73;6.90;;;;;;;3.14;100.00;94347.16;10531216;28;20038;-75
2021/01/11 07:03:48;;;;;;;22.17;12.07;;;;;;;2.85;100.00;94347.94;10491089;28;20274;-75
2021/01/11 07:08:49;;;;;;;23.90;13.20;;;;;;;2.77;100.00;94358.91;10513518;28;20024;-74
2021/01/11 07:13:49;;;;;;;26.65;15.88;;;;;;;2.40;100.00;94391.03;10524138;28;20031;-72
2021/01/11 07:18:51;;;;;;;29.30;15.85;;;;;;;2.24;100.00;94375.78;10504983;28;20049;-72
2021/01/11 07:23:53;;;;;;;26.00;14.15;;;;;;;2.14;100.00;94379.81;10503460;28;20028;-74
2021/01/11 07:28:56;;;;;;;29.52;16.30;;;;;;;2.13;100.00;94411.84;10537228;28;20548;-72
2021/01/11 07:34:03;;;;;;;24.60;14.13;;;;;;;2.26;100.00;94430.22;10531548;28;20060;-72
2021/01/11 07:39:13;;;;;;;36.10;19.10;;;;;;;2.08;100.00;94443.53;10489745;28;20123;-72
2021/01/11 07:44:20;;;;;;;38.42;18.40;;;;;;;2.13;100.00;94446.31;10505060;28;20870;-73
2021/01/11 07:49:21;;;;;;;41.13;20.10;;;;;;;2.12;100.00;94473.84;10509440;28;20035;-73
2021/01/11 07:54:22;;;;;;;44.13;21.10;;;;;;;2.07;100.00;94487.78;10505388;28;20411;-73
2021/01/11 07:59:23;;;;;;;42.17;22.05;;;;;;;1.97;100.00;94490.19;10488873;28;20467;-73
2021/01/11 08:04:23;;;;;;;47.20;22.33;;;;;;;2.31;100.00;94490.50;10489493;28;20199;-73
2021/01/11 08:09:26;;;;;;;45.93;21.03;;;;;;;2.44;100.00;94516.81;10471608;28;20040;-73
2021/01/11 08:14:28;;;;;;;36.83;20.67;;;;;;;2.54;100.00;94519.72;10488600;28;20318;-73
2021/01/11 08:19:29;;;;;;;38.15;19.10;;;;;;;2.76;100.00;94529.78;10488490;28;20033;-73
2021/01/11 08:24:29;;;;;;;33.58;17.25;;;;;;;2.66;100.00;94521.59;10488670;28;20029;-73
2021/01/11 08:29:37;;;;;;;29.75;16.33;;;;;;;2.56;100.00;94541.53;10488424;28;20162;-74
2021/01/11 08:34:40;;;;;;;;;;;;;;;2.42;100.00;94560.53;10488566;28;20135;-74
2021/01/11 08:39:40;;;;;;;35.75;18.08;;;;;;;2.39;100.00;94554.63;10523303;28;19916;-74
2021/01/11 08:44:41;;;;;;;35.90;19.20;;;;;;;2.37;100.00;94548.75;10522920;28;20050;-74
2021/01/11 08:50:01;;;;;;;31.35;16.58;;;;;;;2.54;100.00;94583.41;10487690;28;20028;-74
2021/01/11 08:55:09;;;;;;;32.25;16.75;;;;;;;2.55;100.00;94569.09;10507656;28;20457;-74
2021/01/11 09:00:13;;;;;;;29.08;16.45;;;;;;;2.52;100.00;94585.44;10504766;28;20032;-74
2021/01/11 09:05:17;;;;;;;39.35;20.35;;;;;;;2.33;100.00;94586.53;10487958;28;20029;-73
2021/01/11 09:10:23;;;;;;;36.08;18.08;;;;;;;2.40;100.00;94574.03;10487737;28;20743;-73
2021/01/11 09:15:27;;;;;;;34.00;18.15;;;;;;;2.50;100.00;94576.13;10487727;28;20024;-73
2021/01/11 09:20:28;;;;;;;38.00;16.73;;;;;;;2.61;100.00;94566.56;10486562;28;20072;-73
2021/01/11 09:25:28;;;;;;;27.88;16.65;;;;;;;2.54;100.00;94595.84;10468401;28;20574;-73
2021/01/11 09:30:30;;;;;;;27.30;16.10;;;;;;;2.66;100.00;94561.38;10469074;28;20027;-73
2021/01/11 09:35:30;;;;;;;26.90;14.30;;;;;;;2.58;100.00;94583.75;10486638;28;20086;-73
2021/01/11 09:40:30;;;;;;;34.75;15.05;;;;;;;2.89;100.00;94580.00;10485932;28;20031;-73
2021/01/11 09:45:31;;;;;;;28.80;16.23;;;;;;;3.12;100.00;94573.09;10486599;28;20031;-74
2021/01/11 09:50:32;;;;;;;30.20;14.57;;;;;;;3.47;100.00;94577.59;10485977;28;20301;-74
2021/01/11 09:55:32;;;;;;;31.90;16.35;;;;;;;3.59;100.00;94573.09;10504827;28;20373;-73
2021/01/11 10:00:32;;;;;;;31.13;15.50;;;;;;;3.68;100.00;94559.44;10504117;28;20037;-74
2021/01/11 10:05:33;;;;;;;32.90;17.47;;;;;;;3.47;100.00;94572.28;10509481;28;20282;-73
2021/01/11 10:10:33;;;;;;;32.53;16.95;;;;;;;3.40;100.00;94576.91;10501662;28;20781;-73
2021/01/11 10:15:33;;;;;;;35.13;18.47;;;;;;;3.31;100.00;94549.91;10505176;28;20036;-73
2021/01/11 10:20:34;;;;;;;39.07;19.53;;;;;;;3.61;100.00;94564.88;10501672;28;20472;-72
2021/01/11 10:25:34;;;;;;;46.90;21.37;;;;;;;3.79;100.00;94545.31;10492827;28;20799;-73
2021/01/11 10:30:35;;;;;;;35.38;17.88;;;;;;;3.96;100.00;94539.25;10492614;28;20270;-73
2021/01/11 10:35:35;;;;;;;36.43;19.37;;;;;;;4.10;100.00;94524.63;10492876;28;20035;-73
2021/01/11 10:40:35;;;;;;;35.57;19.83;;;;;;;4.18;100.00;94537.56;10492621;28;20033;-74
2021/01/11 10:45:36;;;;;;;34.47;17.88;;;;;;;4.13;100.00;94534.81;10491990;28;20283;-74
2021/01/11 10:50:36;;;;;;;41.20;22.40;;;;;;;3.70;100.00;94536.09;10492072;28;20013;-72
2021/01/11 10:55:37;;;;;;;35.73;19.03;;;;;;;3.67;100.00;94557.81;10492170;28;20032;-73
2021/01/11 11:00:37;;;;;;;45.73;21.57;;;;;;;3.58;100.00;94557.38;10491273;28;20025;-72
2021/01/11 11:05:39;;;;;;;43.72;20.55;;;;;;;3.59;100.00;94514.63;10491490;28;20782;-72
2021/01/11 11:10:39;;;;;;;38.90;21.48;;;;;;;3.74;100.00;94511.47;10505638;28;20403;-72
2021/01/11 11:15:44;;;;;;;43.08;21.95;;;;;;;3.88;100.00;94548.41;10508379;28;20032;-72
2021/01/11 11:20:47;;;;;;;44.30;21.70;;;;;;;3.53;100.00;94573.19;10491262;28;20045;-75
2021/01/11 11:25:47;;;;;;;101.60;26.60;;;;;;;3.43;100.00;94563.16;10532418;28;20560;-72
2021/01/11 11:30:48;;;;;;;71.33;31.53;;;;;;;3.54;100.00;94543.72;10532381;28;20085;-73
2021/01/11 11:35:48;;;;;;;63.70;29.55;;;;;;;3.65;100.00;94528.81;10513925;28;20358;-73
2021/01/11 11:40:51;;;;;;;48.60;25.15;;;;;;;3.63;100.00;94519.47;10515149;28;20126;-75
2021/01/11 11:45:51;;;;;;;52.33;22.83;;;;;;;3.65;100.00;94534.13;10489746;28;20074;-73
2021/01/11 11:50:53;;;;;;;38.40;18.33;;;;;;;3.54;100.00;94521.69;10471770;28;20051;-74
2021/01/11 11:55:53;;;;;;;31.95;16.13;;;;;;;3.46;100.00;94501.63;10493548;28;20048;-73
2021/01/11 12:00:54;;;;;;;31.50;15.17;;;;;;;3.59;100.00;94511.97;10516961;28;20384;-73
2021/01/11 12:05:54;;;;;;;40.67;15.07;;;;;;;3.53;100.00;94517.41;10490841;28;20649;-72
2021/01/11 12:10:57;;;;;;;19.00;11.70;;;;;;;3.17;100.00;94514.81;10519555;28;20819;-73
2021/01/11 12:15:58;;;;;;;23.95;13.57;;;;;;;3.02;100.00;94533.06;10531109;28;20273;-73
2021/01/11 12:20:58;;;;;;;31.07;16.33;;;;;;;2.99;100.00;94525.56;10530081;28;20040;-73
2021/01/11 12:25:59;;;;;;;32.23;15.67;;;;;;;3.16;100.00;94538.94;10530047;28;20044;-73
2021/01/11 12:30:59;;;;;;;28.55;15.50;;;;;;;3.10;100.00;94543.31;10530034;28;20278;-73
2021/01/11 12:35:59;;;;;;;28.53;15.13;;;;;;;2.94;100.00;94566.03;10488459;28;20475;-73
2021/01/11 12:41:00;;;;;;;27.10;14.70;;;;;;;2.90;100.00;94597.56;10488166;28;20553;-74
2021/01/11 12:46:00;;;;;;;33.88;19.52;;;;;;;2.17;100.00;94580.84;10487721;28;20031;-73
2021/01/11 12:51:00;;;;;;;40.53;23.27;;;;;;;2.15;100.00;94574.13;10488215;28;20024;-74
2021/01/11 12:56:01;;;;;;;30.97;16.27;;;;;;;1.76;100.00;94558.53;10487614;28;20356;-73
2021/01/11 13:01:01;;;;;;;32.93;18.27;;;;;;;1.80;100.00;94565.00;10487081;28;20287;-73
2021/01/11 13:06:02;;;;;;;23.47;13.10;;;;;;;1.92;100.00;94562.41;10487516;28;20029;-74
2021/01/11 13:11:02;;;;;;;24.48;13.27;;;;;;;1.76;100.00;94573.59;10487250;28;20276;-74
2021/01/11 13:16:03;;;;;;;27.25;13.52;;;;;;;2.03;100.00;94559.00;10487196;28;20033;-74
2021/01/11 13:21:03;;;;;;;21.50;10.77;;;;;;;2.00;100.00;94587.81;10487176;28;20066;-74
2021/01/11 13:26:04;;;;;;;17.45;10.60;;;;;;;1.79;100.00;94629.63;10487502;28;20039;-74
2021/01/11 13:31:06;;;;;;;16.87;9.27;;;;;;;1.78;100.00;94614.75;10489813;28;20033;-74
2021/01/11 13:36:07;;;;;;;19.35;9.88;;;;;;;1.81;100.00;94601.03;10495420;28;20116;-74
2021/01/11 13:41:07;;;;;;;23.42;11.07;;;;;;;1.88;100.00;94554.09;10477113;28;20412;-74
2021/01/11 13:46:07;;;;;;;14.27;9.47;;;;;;;1.74;100.00;94599.53;10495229;28;20033;-72
2021/01/11 13:51:12;;;;;;;19.88;11.40;;;;;;;1.49;100.00;94613.63;10494741;28;20282;-73
2021/01/11 13:56:30;;;;;;;164.95;19.27;;;;;;;1.58;100.00;94593.78;10494235;28;20041;-72
2021/01/11 14:01:38;;;;;;;17.17;9.95;;;;;;;1.56;100.00;94624.16;10494280;28;20028;-73
2021/01/11 14:06:38;;;;;;;26.67;11.52;;;;;;;1.91;100.00;94610.31;10493705;28;20100;-73
2021/01/11 14:11:39;;;;;;;20.23;10.80;;;;;;;2.11;100.00;94632.13;10493823;28;20051;-73
2021/01/11 14:16:39;;;;;;;21.17;9.35;;;;;;;2.09;100.00;94634.16;10493497;28;20100;-73
2021/01/11 14:21:42;;;;;;;17.43;9.07;;;;;;;1.97;100.00;94651.88;10527898;28;20036;-73
2021/01/11 14:26:42;;;;;;;26.10;9.43;;;;;;;1.69;100.00;94629.34;10535462;28;21050;-73
2021/01/11 14:31:42;;;;;;;21.15;10.63;;;;;;;1.85;100.00;94609.38;10502301;28;20032;-73
2021/01/11 14:36:43;;;;;;;21.50;12.17;;;;;;;2.06;100.00;94618.72;10492875;28;20033;-72
2021/01/11 14:41:44;;;;;;;19.23;10.53;;;;;;;1.94;100.00;94625.78;10503929;28;20282;-72
2021/01/11 14:46:45;;;;;;;23.45;11.18;;;;;;;2.17;100.00;94633.06;10522572;28;20278;-73
2021/01/11 14:51:45;;;;;;;17.55;10.10;;;;;;;1.99;100.00;94639.97;10511553;28;20036;-73
2021/01/11 14:56:46;;;;;;;23.92;11.88;;;;;;;1.60;100.00;94643.88;10525192;28;20119;-73
2021/01/11 15:01:46;;;;;;;28.83;13.00;;;;;;;1.50;100.00;94636.44;10517512;28;20028;-73
2021/01/11 15:06:48;;;;;;;36.80;16.65;;;;;;;1.49;100.00;94640.09;10529869;28;20021;-73
2021/01/11 15:11:54;;;;;;;39.97;20.20;;;;;;;1.78;100.00;94646.53;10491171;28;20013;-73
2021/01/11 15:16:54;;;;;;;49.03;21.83;;;;;;;1.92;100.00;94646.41;10491204;28;20024;-74
2021/01/11 15:21:54;;;;;;;39.00;19.00;;;;;;;1.88;100.00;94651.31;10505983;28;20040;-74
2021/01/11 15:26:55;;;;;;;55.27;23.03;;;;;;;1.90;100.00;94641.34;10513172;28;20032;-74
2021/01/11 15:31:55;;;;;;;51.60;26.50;;;;;;;1.67;100.00;94634.03;10477608;28;20104;-73
2021/01/11 15:36:56;;;;;;;63.88;30.92;;;;;;;1.30;100.00;94637.44;10480906;28;20085;-74
2021/01/11 15:41:56;;;;;;;93.37;45.07;;;;;;;1.23;100.00;94643.81;10505508;28;20028;-73
2021/01/11 15:46:57;;;;;;;109.83;52.73;;;;;;;1.10;100.00;94632.28;10489198;28;20298;-73
2021/01/11 15:51:57;;;;;;;103.07;52.97;;;;;;;1.06;100.00;94646.19;10498516;28;20286;-73
2021/01/11 15:56:58;;;;;;;105.03;49.15;;;;;;;1.15;100.00;94651.00;10519884;28;20039;-74
2021/01/11 16:01:58;;;;;;;68.80;34.03;;;;;;;1.29;100.00;94658.84;10498942;28;20102;-74
2021/01/11 16:06:59;;;;;;;65.68;30.48;;;;;;;1.18;100.00;94677.03;10492162;28;20301;-74
2021/01/11 16:12:01;;;;;;;58.63;26.83;;;;;;;1.25;100.00;94681.47;10508374;28;20024;-74
2021/01/11 16:17:01;;;;;;;42.60;20.33;;;;;;;1.09;100.00;94678.34;10529921;28;20020;-73
2021/01/11 16:22:01;;;;;;;38.97;19.33;;;;;;;1.37;100.00;94695.63;10530070;28;20040;-73
2021/01/11 16:27:03;;;;;;;51.17;22.90;;;;;;;1.36;100.00;94673.63;10512228;28;20034;-73
2021/01/11 16:32:04;;;;;;;40.20;20.17;;;;;;;1.30;100.00;94706.28;10529623;28;20028;-73
2021/01/11 16:37:05;;;;;;;45.50;20.63;;;;;;;1.57;100.00;94726.44;10526193;28;20107;-73
2021/01/11 16:42:06;;;;;;;43.50;20.73;;;;;;;1.70;100.00;94727.13;10527155;28;20448;-73
2021/01/11 16:47:06;;;;;;;42.72;19.45;;;;;;;1.92;100.00;94718.75;10500032;28;20305;-73
2021/01/11 16:52:07;;;;;;;42.60;20.95;;;;;;;1.91;100.00;94724.28;10503252;28;20115;-73
2021/01/11 16:57:08;;;;;;;39.67;19.58;;;;;;;2.03;100.00;94703.97;10513031;28;20016;-73
2021/01/11 17:02:09;;;;;;;42.92;20.58;;;;;;;2.00;100.00;94713.19;10474969;28;20028;-73
2021/01/11 17:07:09;;;;;;;47.88;25.38;;;;;;;1.85;100.00;94700.28;10511808;28;20020;-73
2021/01/11 17:12:10;;;;;;;52.08;28.35;;;;;;;1.90;100.00;94722.66;10486315;28;20052;-73
2021/01/11 17:17:10;;;;;;;64.00;30.02;;;;;;;1.96;100.00;94717.28;10476933;28;20858;-73
2021/01/11 17:22:11;;;;;;;60.63;30.13;;;;;;;1.95;100.00;94722.81;10517774;28;20048;-73
2021/01/11 17:27:12;;;;;;;57.13;27.83;;;;;;;1.94;100.00;94707.94;10495922;28;20282;-73
2021/01/11 17:32:13;;;;;;;51.00;25.05;;;;;;;1.75;100.00;94721.16;10498949;28;20814;-73
2021/01/11 17:37:13;;;;;;;54.63;28.63;;;;;;;1.87;100.00;94700.88;10517856;28;20024;-72
2021/01/11 17:42:14;;;;;;;50.13;25.35;;;;;;;1.98;100.00;94702.00;10499361;28;20039;-73
2021/01/11 17:47:16;;;;;;;55.65;27.35;;;;;;;2.02;100.00;94708.47;10495931;28;20078;-72
2021/01/11 17:52:17;;;;;;;53.70;23.90;;;;;;;2.05;100.00;94712.50;10521157;28;20012;-74
2021/01/11 17:57:17;;;;;;;46.58;22.58;;;;;;;2.03;100.00;94703.97;10522227;28;20024;-74
2021/01/11 18:02:17;;;;;;;39.30;21.35;;;;;;;2.05;100.00;94696.59;10522423;28;20024;-74
2021/01/11 18:07:18;;;;;;;39.07;19.27;;;;;;;2.01;100.00;94703.38;10521822;28;20024;-74
2021/01/11 18:12:18;;;;;;;34.07;16.77;;;;;;;2.04;100.00;94705.59;10521033;28;20274;-74
2021/01/11 18:17:21;;;;;;;29.27;13.60;;;;;;;2.04;100.00;94705.59;10524996;28;20277;-74
2021/01/11 18:22:25;;;;;;;26.73;14.05;;;;;;;1.90;100.00;94720.00;10527919;28;20302;-73
2021/01/11 18:27:25;;;;;;;28.08;15.95;;;;;;;1.78;100.00;94723.38;10529349;28;20093;-74
2021/01/11 18:32:26;;;;;;;28.83;13.83;;;;;;;1.92;100.00;94717.97;10515112;28;20390;-74
2021/01/11 18:37:30;;;;;;;22.10;11.93;;;;;;;1.82;100.00;94719.25;10510037;28;20393;-74
2021/01/11 18:42:30;;;;;;;30.17;13.52;;;;;;;1.69;100.00;94751.19;10528759;28;20035;-73
2021/01/11 18:47:35;;;;;;;24.75;13.68;;;;;;;1.75;100.00;94738.91;10528840;28;20483;-73
2021/01/11 18:52:36;;;;;;;30.30;15.00;;;;;;;1.73;100.00;94757.69;10527772;28;20101;-73
2021/01/11 18:57:39;;;;;;;25.90;12.88;;;;;;;1.79;100.00;94748.06;10486015;28;20487;-73
2021/01/11 19:02:39;;;;;;;32.67;15.95;;;;;;;1.70;100.00;94726.31;10485945;28;20047;-74
2021/01/11 19:07:39;;;;;;;23.63;13.23;;;;;;;1.65;100.00;94729.63;10485288;28;20085;-74
2021/01/11 19:12:40;;;;;;;33.03;15.67;;;;;;;1.33;100.00;94742.09;10485754;28;20280;-74
2021/01/11 19:17:40;;;;;;;32.85;17.35;;;;;;;1.25;100.00;94727.28;10485753;28;20324;-73
2021/01/11 19:22:44;;;;;;;34.43;16.33;;;;;;;1.08;100.00;94737.59;10485419;28;20431;-73
2021/01/11 19:27:45;;;;;;;40.40;18.58;;;;;;;1.02;100.00;94719.91;10465852;28;20277;-74
2021/01/11 19:32:48;;;;;;;30.92;16.02;;;;;;;1.10;100.00;94706.41;10503190;28;20031;-73
2021/01/11 19:37:48;;;;;;;37.35;17.33;;;;;;;1.03;100.00;94742.69;10492967;28;20043;-73
2021/01/11 19:42:49;;;;;;;37.90;17.45;;;;;;;1.07;100.00;94716.63;10484163;28;20039;-73
2021/01/11 19:47:50;;;;;;;38.15;18.85;;;;;;;0.89;100.00;94741.97;10485033;28;20414;-73
2021/01/11 19:52:51;;;;;;;42.00;20.45;;;;;;;0.80;100.00;94749.34;10485270;28;20028;-73
2021/01/11 19:57:51;;;;;;;40.72;19.83;;;;;;;0.97;100.00;94714.44;10483313;28;20032;-73
2021/01/11 20:02:53;;;;;;;39.97;18.80;;;;;;;0.93;100.00;94731.78;10522109;28;20678;-73
2021/01/11 20:07:53;;;;;;;30.13;17.17;;;;;;;0.95;100.00;94724.41;10557240;28;20028;-73
2021/01/11 20:12:53;;;;;;;35.10;16.80;;;;;;;1.17;100.00;94720.44;10464449;28;20029;-74
2021/01/11 20:17:54;;;;;;;39.45;18.73;;;;;;;1.30;100.00;94724.00;10482434;28;20068;-74
2021/01/11 20:22:54;;;;;;;33.10;16.50;;;;;;;1.44;100.00;94712.28;10481426;28;20147;-73
2021/01/11 20:27:56;;;;;;;35.58;16.02;;;;;;;1.28;100.00;94733.97;10482493;28;20715;-74
2021/01/11 20:32:58;;;;;;;30.15;16.75;;;;;;;1.42;100.00;94719.59;10499637;28;20023;-73
2021/01/11 20:37:58;;;;;;;28.60;15.00;;;;;;;1.40;100.00;94711.09;10524147;28;20044;-73
2021/01/11 20:43:00;;;;;;;34.40;16.77;;;;;;;1.30;100.00;94711.56;10524065;28;20086;-73
2021/01/11 20:48:01;;;;;;;30.83;14.98;;;;;;;1.30;100.00;94724.81;10524951;28;20031;-73
2021/01/11 20:53:02;;;;;;;43.95;18.85;;;;;;;1.22;100.00;94732.22;10524697;28;20513;-73
2021/01/11 20:58:02;;;;;;;37.63;17.15;;;;;;;1.28;100.00;94736.63;10523463;28;20116;-73
2021/01/11 21:03:04;;;;;;;35.70;16.97;;;;;;;1.32;100.00;94745.78;10480664;28;20035;-73
2021/01/11 21:08:04;;;;;;;36.60;17.23;;;;;;;1.11;100.00;94749.59;10483162;28;20270;-72
2021/01/11 21:13:05;;;;;;;36.42;17.55;;;;;;;0.79;100.00;94737.13;10482676;28;20036;-73
2021/01/11 21:18:05;;;;;;;36.75;16.20;;;;;;;0.92;100.00;94727.50;10482072;28;20040;-73
2021/01/11 21:23:06;;;;;;;33.00;15.65;;;;;;;0.94;100.00;94722.81;10483127;28;20060;-72
2021/01/11 21:28:06;;;;;;;26.83;14.13;;;;;;;1.13;100.00;94719.22;10482957;28;20040;-73
2021/01/11 21:33:06;;;;;;;28.33;12.87;;;;;;;1.16;100.00;94726.75;10501658;28;20274;-73
2021/01/11 21:38:07;;;;;;;34.72;15.88;;;;;;;1.19;100.00;94730.78;10504929;28;20309;-73
2021/01/11 21:43:07;;;;;;;29.58;13.63;;;;;;;1.32;100.00;94706.06;10521852;28;20055;-73
2021/01/11 21:48:09;;;;;;;32.33;14.57;;;;;;;1.21;100.00;94704.09;10521376;28;20032;-73
2021/01/11 21:53:09;;;;;;;36.33;13.90;;;;;;;1.28;100.00;94683.69;10551236;28;20479;-74
2021/01/11 21:58:10;;;;;;;34.53;14.60;;;;;;;1.31;100.00;94676.13;10554583;28;20039;-73
2021/01/11 22:03:10;;;;;;;34.83;17.83;;;;;;;1.16;100.00;94696.81;10570776;28;20304;-73
2021/01/11 22:08:10;;;;;;;46.13;17.00;;;;;;;0.84;100.00;94681.75;10572258;28;21145;-74
2021/01/11 22:13:11;;;;;;;40.95;19.40;;;;;;;0.66;100.00;94677.19;10572201;28;20039;-74
2021/01/11 22:18:11;;;;;;;37.25;18.08;;;;;;;0.74;100.00;94681.44;10571875;28;20031;-73
2021/01/11 22:23:12;;;;;;;39.80;18.58;;;;;;;0.83;100.00;94679.31;10523943;28;20123;-73
2021/01/11 22:28:12;;;;;;;35.30;17.83;;;;;;;1.00;100.00;94642.56;10489851;28;20763;-73
2021/01/11 22:33:14;;;;;;;29.90;15.70;;;;;;;0.96;100.00;94644.03;10489939;28;20067;-73
2021/01/11 22:38:23;;;;;;;25.40;14.10;;;;;;;0.89;100.00;94643.25;10489635;28;20029;-73
2021/01/11 22:43:23;;;;;;;38.25;15.52;;;;;;;1.02;100.00;94643.19;10489518;28;20075;-73
2021/01/11 22:48:24;;;;;;;26.65;13.68;;;;;;;1.00;100.00;94647.84;10489463;28;20021;-73
2021/01/11 22:53:24;;;;;;;26.92;13.63;;;;;;;1.02;100.00;94635.25;10489634;28;20032;-73
2021/01/11 22:58:25;;;;;;;34.63;14.48;;;;;;;1.05;100.00;94642.75;10488870;28;20729;-73
2021/01/11 23:03:27;;;;;;;29.63;13.50;;;;;;;1.11;100.00;94639.22;10488716;28;20032;-73